Aeroporto :
LOGIN :

Iscrizione | Disclaimer

   EN    FR    IT 

 










Sommario :    VFR   VFR Marginale   IFR   IFR Intensivo   IFR Molto Intensivo
Visibilità : 
Base nubi : 
>= 8 km
>= 3000ft
5 / 8 km
1000 / 3000 ft
1500m / 5 km
500 / 1000 ft
800 / 1500m
200 / 500 ft
< 800m
< 200 ft
Simboli :   Temporali  Nebbia  Neve Forte  Precipitazioni Forti  Vento > 20 kt
SIGMETs :   Varie  Temporali  Ghiacco  Turbolenza  Onda orograficha  Ceneri Vulcaniche






- Altitudine del aeroporto : 290 ft
- Codice IATA : ACI


EGJA - Alderney

ULTIMO METAR :
  • 130920Z 30012KT 9999 FEW030 09/03 Q1004

METARs OBSOLETI :
  • 130850Z 31013KT 9999 SCT030 09/03 Q1004
  • 130820Z 30014KT 9999 VCSH FEW020 09/03 Q1004
  • 130750Z 30014KT 9999 VCSH FEW028 09/03 Q1004
  • 130720Z 31013KT 9999 VCSH FEW022 09/04 Q1004
  • 130650Z 31011KT 9999 FEW022 08/03 Q1004

TAF TAF EGJA
Valido dal 13 a 09 ore il 13 a 18 ore UTC


130801Z 1309/1318 31010KT 9999 FEW018 SCT030
PROB40
TEMPO 1309/1312 33015G25KT 7000 SHRA BKN015
BECMG 1310/1312 25012KT
TEMPO 1312/1317 7000 SHRA BKN015
BECMG 1314/1316 21025G35KT
BECMG 1316/1318 4000 RA BKN010
BECMG 1317/1318 27024G35KT



MetMap, La meteo Aeronautica in un colpo d'occhio ! - Copyright ORBIFLY Dicembre 2007 - Disclaimer

ORBIFLY MET'MAP TEAM :

Programmazione e sviluppo : Alexandra Zaïnal
Concezione e sviluppo : Baudouin d'Aumeries
Co-Programmazione e sviluppo : Marc-Olivier Méhu
Supporto tecnico e logistico : Manuel Goepfert
Aiuto per la traduzione : Arnaldo La Scala

Contatto : metmap@orbifly.com




FONTI E CREDITI :

   NOAA